sensor_id;sensor_type;location;lat;lon;timestamp;pressure;altitude;pressure_sealevel;temperature;humidity
37368;BME280;23240;43.210;27.910;2022-10-16T00:01:18;101790.66;;;12.43;100.00
37368;BME280;23240;43.210;27.910;2022-10-16T00:03:45;101793.44;;;12.42;100.00
37368;BME280;23240;43.210;27.910;2022-10-16T00:06:12;101791.94;;;12.38;100.00
37368;BME280;23240;43.210;27.910;2022-10-16T00:08:38;101787.88;;;12.32;100.00
37368;BME280;23240;43.210;27.910;2022-10-16T00:13:41;101794.69;;;12.25;100.00
37368;BME280;23240;43.210;27.910;2022-10-16T00:16:08;101795.66;;;12.24;100.00
37368;BME280;23240;43.210;27.910;2022-10-16T00:18:34;101794.03;;;12.21;100.00
37368;BME280;23240;43.210;27.910;2022-10-16T00:21:08;101801.03;;;12.11;100.00
37368;BME280;23240;43.210;27.910;2022-10-16T00:23:34;101801.78;;;12.13;100.00
37368;BME280;23240;43.210;27.910;2022-10-16T00:26:03;101801.25;;;12.08;100.00
37368;BME280;23240;43.210;27.910;2022-10-16T00:28:29;101803.41;;;12.03;100.00
37368;BME280;23240;43.210;27.910;2022-10-16T00:30:55;101803.63;;;12.00;100.00
37368;BME280;23240;43.210;27.910;2022-10-16T00:33:21;101805.03;;;11.93;100.00
37368;BME280;23240;43.210;27.910;2022-10-16T00:35:46;101806.00;;;11.92;100.00
37368;BME280;23240;43.210;27.910;2022-10-16T00:38:12;101803.31;;;11.92;100.00
37368;BME280;23240;43.210;27.910;2022-10-16T00:40:39;101804.28;;;11.91;100.00
37368;BME280;23240;43.210;27.910;2022-10-16T00:43:12;101800.28;;;11.83;100.00
37368;BME280;23240;43.210;27.910;2022-10-16T00:45:39;101801.16;;;11.84;100.00
37368;BME280;23240;43.210;27.910;2022-10-16T00:48:09;101793.63;;;11.76;100.00
37368;BME280;23240;43.210;27.910;2022-10-16T00:50:36;101788.25;;;11.76;100.00
37368;BME280;23240;43.210;27.910;2022-10-16T00:53:01;101791.13;;;11.73;100.00
37368;BME280;23240;43.210;27.910;2022-10-16T00:55:28;101792.13;;;11.72;100.00
37368;BME280;23240;43.210;27.910;2022-10-16T00:57:56;101796.16;;;11.65;100.00
37368;BME280;23240;43.210;27.910;2022-10-16T01:00:25;101795.97;;;11.68;100.00
37368;BME280;23240;43.210;27.910;2022-10-16T01:02:55;101796.09;;;11.67;100.00
37368;BME280;23240;43.210;27.910;2022-10-16T01:05:23;101801.13;;;11.58;100.00
37368;BME280;23240;43.210;27.910;2022-10-16T01:08:21;101800.25;;;11.58;100.00
37368;BME280;23240;43.210;27.910;2022-10-16T01:11:01;101805.94;;;11.53;100.00
37368;BME280;23240;43.210;27.910;2022-10-16T01:13:36;101806.81;;;11.54;100.00
37368;BME280;23240;43.210;27.910;2022-10-16T01:16:17;101813.34;;;11.50;100.00
37368;BME280;23240;43.210;27.910;2022-10-16T01:18:55;101820.75;;;11.46;100.00
37368;BME280;23240;43.210;27.910;2022-10-16T01:21:35;101813.75;;;11.44;100.00
37368;BME280;23240;43.210;27.910;2022-10-16T01:34:53;101837.25;;;11.27;100.00
37368;BME280;23240;43.210;27.910;2022-10-16T01:37:32;101830.47;;;11.35;100.00
37368;BME280;23240;43.210;27.910;2022-10-16T01:40:00;101841.53;;;11.30;100.00
37368;BME280;23240;43.210;27.910;2022-10-16T01:42:35;101839.69;;;11.30;100.00
37368;BME280;23240;43.210;27.910;2022-10-16T01:45:02;101836.25;;;11.28;100.00
37368;BME280;23240;43.210;27.910;2022-10-16T01:47:31;101840.13;;;11.24;100.00
37368;BME280;23240;43.210;27.910;2022-10-16T01:49:59;101830.78;;;11.30;100.00
37368;BME280;23240;43.210;27.910;2022-10-16T01:52:27;101826.59;;;11.26;100.00
37368;BME280;23240;43.210;27.910;2022-10-16T01:54:55;101833.88;;;11.24;100.00
37368;BME280;23240;43.210;27.910;2022-10-16T01:57:24;101837.56;;;11.36;100.00
37368;BME280;23240;43.210;27.910;2022-10-16T01:59:54;101833.28;;;11.33;100.00
37368;BME280;23240;43.210;27.910;2022-10-16T02:02:22;101832.63;;;11.29;100.00
37368;BME280;23240;43.210;27.910;2022-10-16T02:07:47;101839.44;;;11.21;100.00
37368;BME280;23240;43.210;27.910;2022-10-16T02:10:13;101834.00;;;11.22;100.00
37368;BME280;23240;43.210;27.910;2022-10-16T02:12:41;101840.22;;;11.23;100.00
37368;BME280;23240;43.210;27.910;2022-10-16T02:15:09;101839.16;;;11.25;100.00
37368;BME280;23240;43.210;27.910;2022-10-16T02:17:35;101846.63;;;11.20;100.00
37368;BME280;23240;43.210;27.910;2022-10-16T02:20:01;101840.31;;;11.21;100.00
37368;BME280;23240;43.210;27.910;2022-10-16T02:22:38;101839.44;;;11.21;100.00
37368;BME280;23240;43.210;27.910;2022-10-16T02:25:15;101843.28;;;11.17;100.00
37368;BME280;23240;43.210;27.910;2022-10-16T02:28:04;101844.69;;;11.10;100.00
37368;BME280;23240;43.210;27.910;2022-10-16T02:33:06;101856.06;;;11.13;100.00
37368;BME280;23240;43.210;27.910;2022-10-16T02:35:33;101856.81;;;11.15;100.00
37368;BME280;23240;43.210;27.910;2022-10-16T02:37:59;101856.69;;;11.17;100.00
37368;BME280;23240;43.210;27.910;2022-10-16T02:40:25;101853.94;;;11.18;100.00
37368;BME280;23240;43.210;27.910;2022-10-16T02:42:52;101855.97;;;11.15;100.00
37368;BME280;23240;43.210;27.910;2022-10-16T02:45:19;101854.91;;;11.17;100.00
37368;BME280;23240;43.210;27.910;2022-10-16T02:47:45;101859.84;;;11.23;100.00
37368;BME280;23240;43.210;27.910;2022-10-16T02:50:10;101858.78;;;11.26;100.00
37368;BME280;23240;43.210;27.910;2022-10-16T02:52:36;101858.44;;;11.18;100.00
37368;BME280;23240;43.210;27.910;2022-10-16T02:55:01;101867.53;;;11.15;100.00
37368;BME280;23240;43.210;27.910;2022-10-16T02:57:27;101867.53;;;11.15;100.00
37368;BME280;23240;43.210;27.910;2022-10-16T02:59:53;101868.22;;;11.19;100.00
37368;BME280;23240;43.210;27.910;2022-10-16T03:02:18;101870.78;;;11.20;100.00
37368;BME280;23240;43.210;27.910;2022-10-16T03:04:44;101856.22;;;11.24;100.00
37368;BME280;23240;43.210;27.910;2022-10-16T03:07:09;101860.03;;;11.20;100.00
37368;BME280;23240;43.210;27.910;2022-10-16T03:09:35;101865.41;;;11.20;100.00
37368;BME280;23240;43.210;27.910;2022-10-16T03:12:00;101860.56;;;11.13;100.00
37368;BME280;23240;43.210;27.910;2022-10-16T03:14:26;101857.97;;;11.11;100.00
37368;BME280;23240;43.210;27.910;2022-10-16T03:16:51;101859.72;;;11.12;100.00
37368;BME280;23240;43.210;27.910;2022-10-16T03:19:17;101864.13;;;11.13;100.00
37368;BME280;23240;43.210;27.910;2022-10-16T03:21:43;101872.25;;;11.12;100.00
37368;BME280;23240;43.210;27.910;2022-10-16T03:24:09;101866.03;;;11.11;100.00
37368;BME280;23240;43.210;27.910;2022-10-16T03:26:34;101864.50;;;11.07;100.00
37368;BME280;23240;43.210;27.910;2022-10-16T03:29:00;101870.63;;;11.09;100.00
37368;BME280;23240;43.210;27.910;2022-10-16T03:31:27;101870.63;;;11.09;100.00
37368;BME280;23240;43.210;27.910;2022-10-16T03:33:53;101864.50;;;11.07;100.00
37368;BME280;23240;43.210;27.910;2022-10-16T03:36:18;101865.94;;;11.13;100.00
37368;BME280;23240;43.210;27.910;2022-10-16T03:38:44;101876.38;;;11.17;100.00
37368;BME280;23240;43.210;27.910;2022-10-16T03:41:09;101876.56;;;11.14;100.00
37368;BME280;23240;43.210;27.910;2022-10-16T03:43:34;101880.94;;;11.15;100.00
37368;BME280;23240;43.210;27.910;2022-10-16T03:46:01;101886.88;;;11.20;100.00
37368;BME280;23240;43.210;27.910;2022-10-16T03:48:26;101882.91;;;11.26;100.00
37368;BME280;23240;43.210;27.910;2022-10-16T03:50:51;101886.94;;;11.33;100.00
37368;BME280;23240;43.210;27.910;2022-10-16T03:53:17;101879.00;;;11.31;100.00
37368;BME280;23240;43.210;27.910;2022-10-16T03:55:43;101876.75;;;11.38;100.00
37368;BME280;23240;43.210;27.910;2022-10-16T03:58:10;101877.19;;;11.45;100.00
37368;BME280;23240;43.210;27.910;2022-10-16T04:00:35;101879.66;;;11.48;100.00
37368;BME280;23240;43.210;27.910;2022-10-16T04:03:01;101882.16;;;11.51;100.00
37368;BME280;23240;43.210;27.910;2022-10-16T04:05:26;101885.47;;;11.54;99.93
37368;BME280;23240;43.210;27.910;2022-10-16T04:07:52;101881.75;;;11.57;99.26
37368;BME280;23240;43.210;27.910;2022-10-16T04:10:18;101886.44;;;11.53;99.02
37368;BME280;23240;43.210;27.910;2022-10-16T04:12:44;101880.28;;;11.39;100.00
37368;BME280;23240;43.210;27.910;2022-10-16T04:15:09;101889.50;;;11.35;100.00
37368;BME280;23240;43.210;27.910;2022-10-16T04:17:35;101886.25;;;11.29;100.00
37368;BME280;23240;43.210;27.910;2022-10-16T04:20:00;101889.13;;;11.26;100.00
37368;BME280;23240;43.210;27.910;2022-10-16T04:22:26;101892.47;;;11.30;100.00
37368;BME280;23240;43.210;27.910;2022-10-16T04:24:51;101889.06;;;11.28;100.00
37368;BME280;23240;43.210;27.910;2022-10-16T04:27:17;101892.03;;;11.23;100.00
37368;BME280;23240;43.210;27.910;2022-10-16T04:29:42;101901.91;;;11.23;100.00
37368;BME280;23240;43.210;27.910;2022-10-16T04:32:11;101889.13;;;11.26;100.00
37368;BME280;23240;43.210;27.910;2022-10-16T04:34:39;101900.84;;;11.25;100.00
37368;BME280;23240;43.210;27.910;2022-10-16T04:37:05;101898.25;;;11.24;100.00
37368;BME280;23240;43.210;27.910;2022-10-16T04:39:31;101902.88;;;11.22;100.00
37368;BME280;23240;43.210;27.910;2022-10-16T04:41:56;101908.13;;;11.23;100.00
37368;BME280;23240;43.210;27.910;2022-10-16T04:44:22;101912.41;;;11.26;100.00
37368;BME280;23240;43.210;27.910;2022-10-16T04:46:49;101911.19;;;11.31;100.00
37368;BME280;23240;43.210;27.910;2022-10-16T04:49:15;101911.94;;;11.33;100.00
37368;BME280;23240;43.210;27.910;2022-10-16T04:51:40;101915.16;;;11.39;99.96
37368;BME280;23240;43.210;27.910;2022-10-16T04:54:06;101916.00;;;11.39;99.60
37368;BME280;23240;43.210;27.910;2022-10-16T04:56:31;101917.66;;;11.42;99.47
37368;BME280;23240;43.210;27.910;2022-10-16T04:58:57;101907.84;;;11.41;99.87
37368;BME280;23240;43.210;27.910;2022-10-16T05:01:23;101919.63;;;11.52;98.98
37368;BME280;23240;43.210;27.910;2022-10-16T05:03:48;101920.91;;;11.59;98.66
37368;BME280;23240;43.210;27.910;2022-10-16T05:06:14;101918.88;;;11.63;97.65
37368;BME280;23240;43.210;27.910;2022-10-16T05:08:39;101919.75;;;11.64;97.44
37368;BME280;23240;43.210;27.910;2022-10-16T05:11:05;101917.53;;;11.70;97.34
37368;BME280;23240;43.210;27.910;2022-10-16T05:13:30;101927.59;;;11.79;96.50
37368;BME280;23240;43.210;27.910;2022-10-16T05:15:55;101928.53;;;11.93;95.42
37368;BME280;23240;43.210;27.910;2022-10-16T05:18:22;101939.06;;;11.96;94.52
37368;BME280;23240;43.210;27.910;2022-10-16T05:20:47;101945.34;;;12.09;94.93
37368;BME280;23240;43.210;27.910;2022-10-16T05:23:13;101941.34;;;12.27;93.82
37368;BME280;23240;43.210;27.910;2022-10-16T05:25:38;101951.13;;;12.41;90.73
37368;BME280;23240;43.210;27.910;2022-10-16T05:28:04;101955.00;;;12.50;90.74
37368;BME280;23240;43.210;27.910;2022-10-16T05:30:29;101953.91;;;12.65;89.82
37368;BME280;23240;43.210;27.910;2022-10-16T05:32:55;101966.38;;;12.79;88.68
37368;BME280;23240;43.210;27.910;2022-10-16T05:35:21;101965.38;;;12.93;86.78
37368;BME280;23240;43.210;27.910;2022-10-16T05:37:47;101962.56;;;13.07;85.00
37368;BME280;23240;43.210;27.910;2022-10-16T05:40:13;101965.00;;;13.23;84.89
37368;BME280;23240;43.210;27.910;2022-10-16T05:42:39;101964.13;;;13.35;82.38
37368;BME280;23240;43.210;27.910;2022-10-16T05:45:06;101974.31;;;13.43;80.75
37368;BME280;23240;43.210;27.910;2022-10-16T05:47:33;101968.28;;;13.39;79.89
37368;BME280;23240;43.210;27.910;2022-10-16T05:49:58;101978.09;;;13.40;79.13
37368;BME280;23240;43.210;27.910;2022-10-16T05:52:24;101966.47;;;13.40;79.74
37368;BME280;23240;43.210;27.910;2022-10-16T05:54:49;101982.19;;;13.33;80.23
37368;BME280;23240;43.210;27.910;2022-10-16T05:57:15;101985.22;;;13.28;80.75
37368;BME280;23240;43.210;27.910;2022-10-16T05:59:40;101985.69;;;13.22;79.67
37368;BME280;23240;43.210;27.910;2022-10-16T06:02:08;101986.31;;;13.26;80.20
37368;BME280;23240;43.210;27.910;2022-10-16T06:04:37;101997.78;;;13.41;78.89
37368;BME280;23240;43.210;27.910;2022-10-16T06:07:02;101996.59;;;13.45;78.83
37368;BME280;23240;43.210;27.910;2022-10-16T06:09:27;101996.59;;;13.45;78.86
37368;BME280;23240;43.210;27.910;2022-10-16T06:11:53;101995.75;;;13.44;77.86
37368;BME280;23240;43.210;27.910;2022-10-16T06:14:18;102002.72;;;13.47;78.37
37368;BME280;23240;43.210;27.910;2022-10-16T06:16:44;101994.69;;;13.58;77.94
37368;BME280;23240;43.210;27.910;2022-10-16T06:19:09;102001.47;;;13.63;77.87
37368;BME280;23240;43.210;27.910;2022-10-16T06:21:35;102004.91;;;13.66;77.38
37368;BME280;23240;43.210;27.910;2022-10-16T06:24:00;101995.22;;;13.63;77.17
37368;BME280;23240;43.210;27.910;2022-10-16T06:26:28;102001.00;;;13.70;76.06
37368;BME280;23240;43.210;27.910;2022-10-16T06:28:55;101996.88;;;13.77;76.67
37368;BME280;23240;43.210;27.910;2022-10-16T06:31:21;102007.47;;;13.91;76.56
37368;BME280;23240;43.210;27.910;2022-10-16T06:33:50;102001.16;;;14.03;75.16
37368;BME280;23240;43.210;27.910;2022-10-16T06:36:17;102003.22;;;14.00;75.63
37368;BME280;23240;43.210;27.910;2022-10-16T06:38:43;102005.03;;;14.23;75.09
37368;BME280;23240;43.210;27.910;2022-10-16T06:41:17;102003.06;;;14.25;75.23
37368;BME280;23240;43.210;27.910;2022-10-16T06:43:43;102023.97;;;14.46;75.00
37368;BME280;23240;43.210;27.910;2022-10-16T06:46:11;102021.03;;;14.49;74.55
37368;BME280;23240;43.210;27.910;2022-10-16T06:48:37;102033.81;;;14.69;74.54
37368;BME280;23240;43.210;27.910;2022-10-16T06:53:31;102021.19;;;15.03;71.69
37368;BME280;23240;43.210;27.910;2022-10-16T06:55:57;102026.34;;;15.29;70.09
37368;BME280;23240;43.210;27.910;2022-10-16T06:58:23;102028.31;;;15.38;68.99
37368;BME280;23240;43.210;27.910;2022-10-16T07:00:48;102025.25;;;15.42;68.45
37368;BME280;23240;43.210;27.910;2022-10-16T07:03:14;102035.38;;;15.73;67.32
37368;BME280;23240;43.210;27.910;2022-10-16T07:05:41;102026.53;;;15.71;66.13
37368;BME280;23240;43.210;27.910;2022-10-16T07:08:08;102032.13;;;15.90;64.83
37368;BME280;23240;43.210;27.910;2022-10-16T07:10:34;102042.34;;;15.86;64.34
37368;BME280;23240;43.210;27.910;2022-10-16T07:12:59;102029.47;;;16.11;64.74
37368;BME280;23240;43.210;27.910;2022-10-16T07:15:25;102041.16;;;16.32;62.24
37368;BME280;23240;43.210;27.910;2022-10-16T07:17:51;102045.34;;;16.78;60.70
37368;BME280;23240;43.210;27.910;2022-10-16T07:20:18;102045.78;;;17.14;57.26
37368;BME280;23240;43.210;27.910;2022-10-16T07:22:44;102044.34;;;17.60;55.39
37368;BME280;23240;43.210;27.910;2022-10-16T07:25:10;102044.56;;;17.87;53.46
37368;BME280;23240;43.210;27.910;2022-10-16T07:27:36;102044.63;;;17.57;53.89
37368;BME280;23240;43.210;27.910;2022-10-16T07:30:02;102037.88;;;17.91;53.56
37368;BME280;23240;43.210;27.910;2022-10-16T07:32:28;102036.56;;;17.76;52.89
37368;BME280;23240;43.210;27.910;2022-10-16T07:34:53;102041.16;;;18.05;51.80
37368;BME280;23240;43.210;27.910;2022-10-16T07:37:21;102042.19;;;18.04;52.26
37368;BME280;23240;43.210;27.910;2022-10-16T07:39:46;102045.44;;;18.17;51.15
37368;BME280;23240;43.210;27.910;2022-10-16T07:42:12;102053.13;;;18.31;51.03
37368;BME280;23240;43.210;27.910;2022-10-16T07:44:37;102043.84;;;18.43;49.91
37368;BME280;23240;43.210;27.910;2022-10-16T07:47:03;102043.25;;;18.69;49.87
37368;BME280;23240;43.210;27.910;2022-10-16T07:49:28;102039.53;;;19.17;48.53
37368;BME280;23240;43.210;27.910;2022-10-16T07:51:54;102043.22;;;19.43;47.54
37368;BME280;23240;43.210;27.910;2022-10-16T07:54:19;102047.13;;;19.41;47.48
37368;BME280;23240;43.210;27.910;2022-10-16T07:56:45;102049.16;;;19.29;47.86
37368;BME280;23240;43.210;27.910;2022-10-16T07:59:10;102034.19;;;18.97;47.68
37368;BME280;23240;43.210;27.910;2022-10-16T08:01:36;102037.25;;;18.56;48.18
37368;BME280;23240;43.210;27.910;2022-10-16T08:04:01;102032.44;;;18.30;49.34
37368;BME280;23240;43.210;27.910;2022-10-16T08:06:27;102044.56;;;18.45;50.05
37368;BME280;23240;43.210;27.910;2022-10-16T08:08:52;102041.16;;;18.43;48.90
37368;BME280;23240;43.210;27.910;2022-10-16T08:11:18;102045.16;;;18.20;48.37
37368;BME280;23240;43.210;27.910;2022-10-16T08:13:44;102050.16;;;18.05;49.42
37368;BME280;23240;43.210;27.910;2022-10-16T08:16:09;102047.72;;;17.92;49.51
37368;BME280;23240;43.210;27.910;2022-10-16T08:18:36;102043.72;;;17.96;49.73
37368;BME280;23240;43.210;27.910;2022-10-16T08:21:03;102038.56;;;17.93;49.24
37368;BME280;23240;43.210;27.910;2022-10-16T08:23:29;102042.69;;;17.78;49.17
37368;BME280;23240;43.210;27.910;2022-10-16T08:26:00;102038.81;;;17.71;49.30
37368;BME280;23240;43.210;27.910;2022-10-16T08:28:26;102038.66;;;17.63;49.88
37368;BME280;23240;43.210;27.910;2022-10-16T08:30:52;102045.25;;;17.70;49.93
37368;BME280;23240;43.210;27.910;2022-10-16T08:33:17;102047.63;;;17.54;49.83
37368;BME280;23240;43.210;27.910;2022-10-16T08:35:50;102043.13;;;17.33;50.36
37368;BME280;23240;43.210;27.910;2022-10-16T08:38:15;102058.41;;;17.04;50.87
37368;BME280;23240;43.210;27.910;2022-10-16T08:40:42;102043.88;;;16.74;51.07
37368;BME280;23240;43.210;27.910;2022-10-16T08:46:18;102055.56;;;16.54;52.07
37368;BME280;23240;43.210;27.910;2022-10-16T08:48:54;102045.09;;;16.28;54.12
37368;BME280;23240;43.210;27.910;2022-10-16T08:53:56;102060.06;;;16.32;53.23
37368;BME280;23240;43.210;27.910;2022-10-16T08:56:23;102071.22;;;16.39;53.43
37368;BME280;23240;43.210;27.910;2022-10-16T08:58:49;102055.94;;;16.49;52.95
37368;BME280;23240;43.210;27.910;2022-10-16T09:01:17;102060.06;;;16.53;52.43
37368;BME280;23240;43.210;27.910;2022-10-16T09:04:07;102053.31;;;16.59;52.27
37368;BME280;23240;43.210;27.910;2022-10-16T09:12:21;102077.13;;;16.86;50.38
37368;BME280;23240;43.210;27.910;2022-10-16T09:20:28;102060.69;;;16.78;50.23
37368;BME280;23240;43.210;27.910;2022-10-16T09:23:12;102068.84;;;16.87;50.02
37368;BME280;23240;43.210;27.910;2022-10-16T09:25:42;102056.53;;;16.94;49.98
37368;BME280;23240;43.210;27.910;2022-10-16T09:28:08;102051.09;;;16.94;49.77
37368;BME280;23240;43.210;27.910;2022-10-16T09:30:35;102055.13;;;17.00;49.53
37368;BME280;23240;43.210;27.910;2022-10-16T09:33:01;102060.72;;;17.08;49.25
37368;BME280;23240;43.210;27.910;2022-10-16T09:37:59;102060.31;;;17.13;49.13
37368;BME280;23240;43.210;27.910;2022-10-16T09:40:32;102057.16;;;17.08;49.40
37368;BME280;23240;43.210;27.910;2022-10-16T09:45:58;102050.03;;;17.07;49.91
37368;BME280;23240;43.210;27.910;2022-10-16T09:48:28;102048.34;;;17.15;50.23
37368;BME280;23240;43.210;27.910;2022-10-16T09:51:01;102044.69;;;17.26;49.15
37368;BME280;23240;43.210;27.910;2022-10-16T09:53:41;102065.44;;;17.16;49.17
37368;BME280;23240;43.210;27.910;2022-10-16T09:56:07;102052.44;;;17.10;49.47
37368;BME280;23240;43.210;27.910;2022-10-16T09:58:35;102046.19;;;17.09;48.39
37368;BME280;23240;43.210;27.910;2022-10-16T10:01:00;102043.06;;;17.14;48.77
37368;BME280;23240;43.210;27.910;2022-10-16T10:03:38;102040.81;;;17.19;49.16
37368;BME280;23240;43.210;27.910;2022-10-16T10:06:22;102045.56;;;17.27;48.91
37368;BME280;23240;43.210;27.910;2022-10-16T10:08:57;102051.97;;;17.35;47.80
37368;BME280;23240;43.210;27.910;2022-10-16T10:11:36;102050.41;;;17.33;47.30
37368;BME280;23240;43.210;27.910;2022-10-16T10:14:32;102047.53;;;17.25;47.80
37368;BME280;23240;43.210;27.910;2022-10-16T10:17:22;102038.56;;;17.24;48.37
37368;BME280;23240;43.210;27.910;2022-10-16T10:19:59;102033.53;;;17.19;47.45
37368;BME280;23240;43.210;27.910;2022-10-16T10:25:12;102046.16;;;17.00;48.40
37368;BME280;23240;43.210;27.910;2022-10-16T10:30:29;102045.44;;;16.98;48.32
37368;BME280;23240;43.210;27.910;2022-10-16T10:44:11;102042.03;;;17.36;46.87
37368;BME280;23240;43.210;27.910;2022-10-16T10:46:51;102044.16;;;17.32;47.57
37368;BME280;23240;43.210;27.910;2022-10-16T10:49:56;102034.19;;;17.42;47.78
37368;BME280;23240;43.210;27.910;2022-10-16T11:03:56;102021.63;;;17.32;46.81
37368;BME280;23240;43.210;27.910;2022-10-16T11:06:25;102018.06;;;17.31;47.66
37368;BME280;23240;43.210;27.910;2022-10-16T11:12:12;102014.34;;;17.32;46.94
37368;BME280;23240;43.210;27.910;2022-10-16T11:15:15;102014.22;;;17.34;47.74
37368;BME280;23240;43.210;27.910;2022-10-16T11:20:33;102027.59;;;17.35;46.15
37368;BME280;23240;43.210;27.910;2022-10-16T11:23:18;102032.31;;;17.33;46.37
37368;BME280;23240;43.210;27.910;2022-10-16T11:25:47;102042.59;;;17.39;46.23
37368;BME280;23240;43.210;27.910;2022-10-16T11:28:20;102033.78;;;17.47;45.72
37368;BME280;23240;43.210;27.910;2022-10-16T11:31:02;102033.78;;;17.47;45.97
37368;BME280;23240;43.210;27.910;2022-10-16T11:44:41;102039.34;;;17.45;45.62
37368;BME280;23240;43.210;27.910;2022-10-16T11:47:35;102040.91;;;17.48;45.94
37368;BME280;23240;43.210;27.910;2022-10-16T11:50:13;102038.03;;;17.50;46.02
37368;BME280;23240;43.210;27.910;2022-10-16T11:55:37;102024.88;;;17.35;46.21
37368;BME280;23240;43.210;27.910;2022-10-16T11:58:09;102023.47;;;17.31;46.73
37368;BME280;23240;43.210;27.910;2022-10-16T12:00:52;102016.22;;;17.41;46.58
37368;BME280;23240;43.210;27.910;2022-10-16T12:03:38;102019.91;;;17.40;46.82
37368;BME280;23240;43.210;27.910;2022-10-16T12:08:43;102027.06;;;17.41;44.65
37368;BME280;23240;43.210;27.910;2022-10-16T12:11:34;102037.59;;;17.44;44.49
37368;BME280;23240;43.210;27.910;2022-10-16T12:14:07;102047.47;;;17.45;45.36
37368;BME280;23240;43.210;27.910;2022-10-16T12:17:02;102028.78;;;17.42;46.00
37368;BME280;23240;43.210;27.910;2022-10-16T12:19:30;102035.91;;;17.43;46.54
37368;BME280;23240;43.210;27.910;2022-10-16T12:21:59;102031.47;;;17.42;46.12
37368;BME280;23240;43.210;27.910;2022-10-16T12:26:58;102035.91;;;17.43;46.46
37368;BME280;23240;43.210;27.910;2022-10-16T12:29:41;102041.13;;;17.35;46.40
37368;BME280;23240;43.210;27.910;2022-10-16T12:32:37;102047.56;;;17.34;46.32
37368;BME280;23240;43.210;27.910;2022-10-16T12:35:05;102043.84;;;17.35;46.97
37368;BME280;23240;43.210;27.910;2022-10-16T12:37:34;102041.88;;;17.37;46.43
37368;BME280;23240;43.210;27.910;2022-10-16T12:40:13;102054.56;;;17.37;45.07
37368;BME280;23240;43.210;27.910;2022-10-16T12:42:39;102059.84;;;17.38;45.16
37368;BME280;23240;43.210;27.910;2022-10-16T12:45:32;102058.84;;;17.39;44.60
37368;BME280;23240;43.210;27.910;2022-10-16T12:48:00;102069.81;;;17.38;44.88
37368;BME280;23240;43.210;27.910;2022-10-16T12:53:00;102069.22;;;17.34;45.60
37368;BME280;23240;43.210;27.910;2022-10-16T12:55:26;102078.53;;;17.41;45.62
37368;BME280;23240;43.210;27.910;2022-10-16T13:06:35;102070.34;;;17.22;45.70
37368;BME280;23240;43.210;27.910;2022-10-16T13:17:49;102061.88;;;17.15;46.22
37368;BME280;23240;43.210;27.910;2022-10-16T13:25:02;102068.47;;;17.23;45.94
37368;BME280;23240;43.210;27.910;2022-10-16T13:29:54;102060.88;;;17.07;46.19
37368;BME280;23240;43.210;27.910;2022-10-16T13:32:26;102069.25;;;17.04;46.50
37368;BME280;23240;43.210;27.910;2022-10-16T13:34:52;102072.81;;;17.04;46.75
37368;BME280;23240;43.210;27.910;2022-10-16T13:37:21;102074.13;;;17.10;46.54
37368;BME280;23240;43.210;27.910;2022-10-16T13:39:47;102068.00;;;17.08;46.35
37368;BME280;23240;43.210;27.910;2022-10-16T13:42:24;102077.63;;;17.01;46.27
37368;BME280;23240;43.210;27.910;2022-10-16T13:44:52;102078.63;;;17.00;46.40
37368;BME280;23240;43.210;27.910;2022-10-16T13:47:20;102078.88;;;16.96;46.17
37368;BME280;23240;43.210;27.910;2022-10-16T13:49:58;102073.75;;;16.93;46.03
37368;BME280;23240;43.210;27.910;2022-10-16T13:52:24;102083.84;;;16.91;46.60
37368;BME280;23240;43.210;27.910;2022-10-16T13:54:50;102095.81;;;16.89;46.50
37368;BME280;23240;43.210;27.910;2022-10-16T13:57:17;102104.94;;;16.88;46.07
37368;BME280;23240;43.210;27.910;2022-10-16T13:59:43;102097.31;;;16.82;46.48
37368;BME280;23240;43.210;27.910;2022-10-16T14:02:18;102095.28;;;16.74;46.08
37368;BME280;23240;43.210;27.910;2022-10-16T14:04:45;102086.44;;;16.72;46.43
37368;BME280;23240;43.210;27.910;2022-10-16T14:07:21;102096.75;;;16.67;46.70
37368;BME280;23240;43.210;27.910;2022-10-16T14:09:50;102090.63;;;16.65;46.44
37368;BME280;23240;43.210;27.910;2022-10-16T14:12:16;102083.63;;;16.62;46.65
37368;BME280;23240;43.210;27.910;2022-10-16T14:14:47;102089.31;;;16.59;46.48
37368;BME280;23240;43.210;27.910;2022-10-16T14:19:48;102102.25;;;16.56;46.55
37368;BME280;23240;43.210;27.910;2022-10-16T14:22:37;102095.63;;;16.49;46.93
37368;BME280;23240;43.210;27.910;2022-10-16T14:25:24;102105.00;;;16.44;47.00
37368;BME280;23240;43.210;27.910;2022-10-16T14:30:24;102106.25;;;16.40;46.34
37368;BME280;23240;43.210;27.910;2022-10-16T14:35:31;102103.94;;;16.36;46.67
37368;BME280;23240;43.210;27.910;2022-10-16T14:37:58;102109.00;;;16.29;46.50
37368;BME280;23240;43.210;27.910;2022-10-16T14:40:36;102110.25;;;16.25;46.70
37368;BME280;23240;43.210;27.910;2022-10-16T14:43:03;102114.91;;;16.23;46.78
37368;BME280;23240;43.210;27.910;2022-10-16T14:45:31;102112.13;;;16.25;46.83
37368;BME280;23240;43.210;27.910;2022-10-16T14:48:04;102115.78;;;16.24;46.51
37368;BME280;23240;43.210;27.910;2022-10-16T14:50:31;102110.13;;;16.27;46.64
37368;BME280;23240;43.210;27.910;2022-10-16T14:52:56;102118.09;;;16.28;46.35
37368;BME280;23240;43.210;27.910;2022-10-16T14:55:22;102113.47;;;16.19;46.92
37368;BME280;23240;43.210;27.910;2022-10-16T14:57:48;102114.38;;;16.08;47.19